sensor_id;sensor_type;location;lat;lon;timestamp;temperature;humidity
65207;SHT31;58477;48.072;11.970;2024-01-15T00:01:09;-0.98;95.99
65207;SHT31;58477;48.072;11.970;2024-01-15T00:03:34;-1.06;96.09
65207;SHT31;58477;48.072;11.970;2024-01-15T00:05:59;-1.09;96.37
65207;SHT31;58477;48.072;11.970;2024-01-15T00:08:25;-1.15;96.59
65207;SHT31;58477;48.072;11.970;2024-01-15T00:10:51;-1.20;96.65
65207;SHT31;58477;48.072;11.970;2024-01-15T00:13:16;-1.13;96.83
65207;SHT31;58477;48.072;11.970;2024-01-15T00:15:42;-1.25;96.92
65207;SHT31;58477;48.072;11.970;2024-01-15T00:18:07;-1.25;97.08
65207;SHT31;58477;48.072;11.970;2024-01-15T00:20:32;-1.34;97.08
65207;SHT31;58477;48.072;11.970;2024-01-15T00:22:58;-1.36;97.29
65207;SHT31;58477;48.072;11.970;2024-01-15T00:25:23;-1.38;97.46
65207;SHT31;58477;48.072;11.970;2024-01-15T00:27:49;-1.45;97.59
65207;SHT31;58477;48.072;11.970;2024-01-15T00:30:14;-1.49;97.65
65207;SHT31;58477;48.072;11.970;2024-01-15T00:32:40;-1.43;97.57
65207;SHT31;58477;48.072;11.970;2024-01-15T00:35:05;-1.50;97.57
65207;SHT31;58477;48.072;11.970;2024-01-15T00:37:31;-1.45;97.61
65207;SHT31;58477;48.072;11.970;2024-01-15T00:39:56;-1.50;97.54
65207;SHT31;58477;48.072;11.970;2024-01-15T00:42:21;-1.46;97.51
65207;SHT31;58477;48.072;11.970;2024-01-15T00:44:47;-1.39;97.16
65207;SHT31;58477;48.072;11.970;2024-01-15T00:47:12;-1.29;96.68
65207;SHT31;58477;48.072;11.970;2024-01-15T00:49:38;-1.32;96.50
65207;SHT31;58477;48.072;11.970;2024-01-15T00:52:03;-1.35;96.57
65207;SHT31;58477;48.072;11.970;2024-01-15T00:54:29;-1.34;96.71
65207;SHT31;58477;48.072;11.970;2024-01-15T00:56:54;-1.36;96.81
65207;SHT31;58477;48.072;11.970;2024-01-15T00:59:20;-1.35;96.83
65207;SHT31;58477;48.072;11.970;2024-01-15T01:01:46;-1.38;97.02
65207;SHT31;58477;48.072;11.970;2024-01-15T01:04:12;-1.25;96.92
65207;SHT31;58477;48.072;11.970;2024-01-15T01:06:38;-1.12;96.72
65207;SHT31;58477;48.072;11.970;2024-01-15T01:09:03;-0.94;96.45
65207;SHT31;58477;48.072;11.970;2024-01-15T01:11:29;-0.88;96.26
65207;SHT31;58477;48.072;11.970;2024-01-15T01:13:54;-0.85;96.12
65207;SHT31;58477;48.072;11.970;2024-01-15T01:16:21;-0.88;96.15
65207;SHT31;58477;48.072;11.970;2024-01-15T01:18:47;-0.88;96.25
65207;SHT31;58477;48.072;11.970;2024-01-15T01:21:12;-0.88;96.11
65207;SHT31;58477;48.072;11.970;2024-01-15T01:23:37;-0.91;96.14
65207;SHT31;58477;48.072;11.970;2024-01-15T01:26:03;-0.92;96.16
65207;SHT31;58477;48.072;11.970;2024-01-15T01:28:28;-0.91;96.07
65207;SHT31;58477;48.072;11.970;2024-01-15T01:30:54;-0.94;95.72
65207;SHT31;58477;48.072;11.970;2024-01-15T01:33:19;-1.08;95.96
65207;SHT31;58477;48.072;11.970;2024-01-15T01:35:45;-1.16;95.71
65207;SHT31;58477;48.072;11.970;2024-01-15T01:38:10;-1.22;95.60
65207;SHT31;58477;48.072;11.970;2024-01-15T01:40:36;-1.34;95.12
65207;SHT31;58477;48.072;11.970;2024-01-15T01:43:03;-1.40;94.75
65207;SHT31;58477;48.072;11.970;2024-01-15T01:45:29;-1.50;94.75
65207;SHT31;58477;48.072;11.970;2024-01-15T01:47:54;-1.55;94.58
65207;SHT31;58477;48.072;11.970;2024-01-15T01:50:20;-1.64;94.35
65207;SHT31;58477;48.072;11.970;2024-01-15T01:52:45;-1.67;94.32
65207;SHT31;58477;48.072;11.970;2024-01-15T01:55:11;-1.74;94.28
65207;SHT31;58477;48.072;11.970;2024-01-15T01:57:37;-1.73;94.11
65207;SHT31;58477;48.072;11.970;2024-01-15T02:00:04;-1.77;93.86
65207;SHT31;58477;48.072;11.970;2024-01-15T02:02:36;-1.91;94.17
65207;SHT31;58477;48.072;11.970;2024-01-15T02:05:03;-1.97;94.52
65207;SHT31;58477;48.072;11.970;2024-01-15T02:07:30;-2.03;94.17
65207;SHT31;58477;48.072;11.970;2024-01-15T02:09:56;-2.04;93.97
65207;SHT31;58477;48.072;11.970;2024-01-15T02:12:21;-1.98;93.64
65207;SHT31;58477;48.072;11.970;2024-01-15T02:14:47;-2.07;93.62
65207;SHT31;58477;48.072;11.970;2024-01-15T02:17:12;-2.07;93.59
65207;SHT31;58477;48.072;11.970;2024-01-15T02:19:37;-2.14;93.87
65207;SHT31;58477;48.072;11.970;2024-01-15T02:22:04;-2.17;93.94
65207;SHT31;58477;48.072;11.970;2024-01-15T02:24:30;-2.04;93.53
65207;SHT31;58477;48.072;11.970;2024-01-15T02:26:55;-2.00;93.50
65207;SHT31;58477;48.072;11.970;2024-01-15T02:29:21;-1.97;93.25
65207;SHT31;58477;48.072;11.970;2024-01-15T02:31:46;-1.80;92.41
65207;SHT31;58477;48.072;11.970;2024-01-15T02:34:12;-1.77;92.58
65207;SHT31;58477;48.072;11.970;2024-01-15T02:36:37;-1.77;92.36
65207;SHT31;58477;48.072;11.970;2024-01-15T02:39:02;-1.69;92.09
65207;SHT31;58477;48.072;11.970;2024-01-15T02:41:28;-1.79;92.45
65207;SHT31;58477;48.072;11.970;2024-01-15T02:43:53;-1.79;92.00
65207;SHT31;58477;48.072;11.970;2024-01-15T02:46:19;-1.79;91.66
65207;SHT31;58477;48.072;11.970;2024-01-15T02:48:45;-1.80;91.90
65207;SHT31;58477;48.072;11.970;2024-01-15T02:51:10;-1.80;92.00
65207;SHT31;58477;48.072;11.970;2024-01-15T02:53:36;-1.80;92.07
65207;SHT31;58477;48.072;11.970;2024-01-15T02:56:02;-1.86;92.17
65207;SHT31;58477;48.072;11.970;2024-01-15T02:58:28;-1.95;92.42
65207;SHT31;58477;48.072;11.970;2024-01-15T03:00:53;-2.03;92.92
65207;SHT31;58477;48.072;11.970;2024-01-15T03:03:18;-2.08;93.07
65207;SHT31;58477;48.072;11.970;2024-01-15T03:05:44;-2.13;93.18
65207;SHT31;58477;48.072;11.970;2024-01-15T03:08:09;-2.07;92.83
65207;SHT31;58477;48.072;11.970;2024-01-15T03:10:35;-2.03;92.75
65207;SHT31;58477;48.072;11.970;2024-01-15T03:13:00;-2.05;92.71
65207;SHT31;58477;48.072;11.970;2024-01-15T03:15:25;-2.04;92.88
65207;SHT31;58477;48.072;11.970;2024-01-15T03:17:51;-2.05;92.72
65207;SHT31;58477;48.072;11.970;2024-01-15T03:20:16;-2.00;92.73
65207;SHT31;58477;48.072;11.970;2024-01-15T03:22:42;-1.98;92.60
65207;SHT31;58477;48.072;11.970;2024-01-15T03:25:07;-2.01;92.40
65207;SHT31;58477;48.072;11.970;2024-01-15T03:27:33;-1.95;92.60
65207;SHT31;58477;48.072;11.970;2024-01-15T03:29:58;-1.98;92.65
65207;SHT31;58477;48.072;11.970;2024-01-15T03:32:24;-1.94;92.18
65207;SHT31;58477;48.072;11.970;2024-01-15T03:34:49;-1.91;92.26
65207;SHT31;58477;48.072;11.970;2024-01-15T03:37:15;-1.89;91.83
65207;SHT31;58477;48.072;11.970;2024-01-15T03:39:40;-1.83;91.39
65207;SHT31;58477;48.072;11.970;2024-01-15T03:42:06;-1.84;91.80
65207;SHT31;58477;48.072;11.970;2024-01-15T03:44:31;-1.84;91.87
65207;SHT31;58477;48.072;11.970;2024-01-15T03:46:57;-1.84;92.02
65207;SHT31;58477;48.072;11.970;2024-01-15T03:49:23;-1.81;92.16
65207;SHT31;58477;48.072;11.970;2024-01-15T03:51:48;-1.86;92.28
65207;SHT31;58477;48.072;11.970;2024-01-15T03:54:14;-1.86;91.71
65207;SHT31;58477;48.072;11.970;2024-01-15T03:56:39;-1.80;92.03
65207;SHT31;58477;48.072;11.970;2024-01-15T03:59:04;-1.86;91.84
65207;SHT31;58477;48.072;11.970;2024-01-15T04:01:30;-1.87;91.45
65207;SHT31;58477;48.072;11.970;2024-01-15T04:03:55;-1.86;91.40
65207;SHT31;58477;48.072;11.970;2024-01-15T04:06:21;-1.90;91.62
65207;SHT31;58477;48.072;11.970;2024-01-15T04:08:46;-1.89;90.91
65207;SHT31;58477;48.072;11.970;2024-01-15T04:11:11;-1.89;91.40
65207;SHT31;58477;48.072;11.970;2024-01-15T04:13:37;-1.90;91.28
65207;SHT31;58477;48.072;11.970;2024-01-15T04:16:02;-1.91;91.14
65207;SHT31;58477;48.072;11.970;2024-01-15T04:18:28;-1.91;91.07
65207;SHT31;58477;48.072;11.970;2024-01-15T04:20:54;-1.94;91.38
65207;SHT31;58477;48.072;11.970;2024-01-15T04:23:19;-1.91;91.60
65207;SHT31;58477;48.072;11.970;2024-01-15T04:25:46;-1.95;91.78
65207;SHT31;58477;48.072;11.970;2024-01-15T04:28:12;-1.90;91.59
65207;SHT31;58477;48.072;11.970;2024-01-15T04:30:37;-1.97;90.84
65207;SHT31;58477;48.072;11.970;2024-01-15T04:33:03;-1.93;91.09
65207;SHT31;58477;48.072;11.970;2024-01-15T04:35:28;-1.94;91.22
65207;SHT31;58477;48.072;11.970;2024-01-15T04:37:54;-1.94;91.10
65207;SHT31;58477;48.072;11.970;2024-01-15T04:40:19;-1.97;90.93
65207;SHT31;58477;48.072;11.970;2024-01-15T04:42:44;-2.00;91.35
65207;SHT31;58477;48.072;11.970;2024-01-15T04:45:13;-2.04;91.91
65207;SHT31;58477;48.072;11.970;2024-01-15T04:47:38;-1.95;91.82
65207;SHT31;58477;48.072;11.970;2024-01-15T04:50:05;-2.01;91.70
65207;SHT31;58477;48.072;11.970;2024-01-15T04:52:31;-2.01;91.67
65207;SHT31;58477;48.072;11.970;2024-01-15T04:54:56;-1.98;92.21
65207;SHT31;58477;48.072;11.970;2024-01-15T04:57:21;-2.00;91.86
65207;SHT31;58477;48.072;11.970;2024-01-15T04:59:47;-2.04;91.93
65207;SHT31;58477;48.072;11.970;2024-01-15T05:02:13;-2.05;91.85
65207;SHT31;58477;48.072;11.970;2024-01-15T05:04:38;-2.00;91.99
65207;SHT31;58477;48.072;11.970;2024-01-15T05:07:04;-2.01;92.05
65207;SHT31;58477;48.072;11.970;2024-01-15T05:09:30;-2.00;92.16
65207;SHT31;58477;48.072;11.970;2024-01-15T05:11:55;-2.07;92.88
65207;SHT31;58477;48.072;11.970;2024-01-15T05:14:20;-2.07;92.71
65207;SHT31;58477;48.072;11.970;2024-01-15T05:16:49;-2.13;93.39
65207;SHT31;58477;48.072;11.970;2024-01-15T05:19:16;-2.13;92.98
65207;SHT31;58477;48.072;11.970;2024-01-15T05:21:41;-2.10;92.81
65207;SHT31;58477;48.072;11.970;2024-01-15T05:24:07;-2.18;93.25
65207;SHT31;58477;48.072;11.970;2024-01-15T05:26:33;-2.15;93.23
65207;SHT31;58477;48.072;11.970;2024-01-15T05:28:59;-2.15;93.32
65207;SHT31;58477;48.072;11.970;2024-01-15T05:31:24;-2.14;93.37
65207;SHT31;58477;48.072;11.970;2024-01-15T05:33:50;-2.20;93.51
65207;SHT31;58477;48.072;11.970;2024-01-15T05:36:15;-2.20;93.80
65207;SHT31;58477;48.072;11.970;2024-01-15T05:38:40;-2.20;94.23
65207;SHT31;58477;48.072;11.970;2024-01-15T05:41:06;-2.18;94.25
65207;SHT31;58477;48.072;11.970;2024-01-15T05:43:31;-2.07;93.12
65207;SHT31;58477;48.072;11.970;2024-01-15T05:45:57;-2.04;93.23
65207;SHT31;58477;48.072;11.970;2024-01-15T05:48:22;-2.01;93.07
65207;SHT31;58477;48.072;11.970;2024-01-15T05:50:48;-2.10;93.66
65207;SHT31;58477;48.072;11.970;2024-01-15T05:53:13;-2.10;93.30
65207;SHT31;58477;48.072;11.970;2024-01-15T05:55:39;-2.10;93.46
65207;SHT31;58477;48.072;11.970;2024-01-15T05:58:05;-2.14;93.58
65207;SHT31;58477;48.072;11.970;2024-01-15T06:00:30;-2.14;93.82
65207;SHT31;58477;48.072;11.970;2024-01-15T06:02:58;-2.20;94.00
65207;SHT31;58477;48.072;11.970;2024-01-15T06:05:24;-2.13;93.79
65207;SHT31;58477;48.072;11.970;2024-01-15T06:07:49;-2.13;93.81
65207;SHT31;58477;48.072;11.970;2024-01-15T06:10:15;-2.15;93.68
65207;SHT31;58477;48.072;11.970;2024-01-15T06:12:42;-2.24;93.91
65207;SHT31;58477;48.072;11.970;2024-01-15T06:15:08;-2.17;94.05
65207;SHT31;58477;48.072;11.970;2024-01-15T06:17:33;-2.15;93.24
65207;SHT31;58477;48.072;11.970;2024-01-15T06:19:59;-2.11;93.28
65207;SHT31;58477;48.072;11.970;2024-01-15T06:22:24;-2.13;93.35
65207;SHT31;58477;48.072;11.970;2024-01-15T06:24:50;-2.11;93.04
65207;SHT31;58477;48.072;11.970;2024-01-15T06:27:15;-2.08;92.74
65207;SHT31;58477;48.072;11.970;2024-01-15T06:29:45;-2.15;93.17
65207;SHT31;58477;48.072;11.970;2024-01-15T06:32:10;-2.11;92.99
65207;SHT31;58477;48.072;11.970;2024-01-15T06:34:35;-2.21;93.21
65207;SHT31;58477;48.072;11.970;2024-01-15T06:37:01;-2.14;92.87
65207;SHT31;58477;48.072;11.970;2024-01-15T06:39:27;-2.17;92.96
65207;SHT31;58477;48.072;11.970;2024-01-15T06:41:52;-2.15;92.43
65207;SHT31;58477;48.072;11.970;2024-01-15T06:44:17;-2.18;92.40
65207;SHT31;58477;48.072;11.970;2024-01-15T06:46:43;-2.13;92.30
65207;SHT31;58477;48.072;11.970;2024-01-15T06:49:09;-2.13;92.32
65207;SHT31;58477;48.072;11.970;2024-01-15T06:51:35;-2.13;92.30
65207;SHT31;58477;48.072;11.970;2024-01-15T06:54:00;-2.11;92.05
65207;SHT31;58477;48.072;11.970;2024-01-15T06:56:26;-2.11;92.59
65207;SHT31;58477;48.072;11.970;2024-01-15T06:58:51;-2.15;92.36
65207;SHT31;58477;48.072;11.970;2024-01-15T07:01:17;-2.15;92.52
65207;SHT31;58477;48.072;11.970;2024-01-15T07:03:42;-2.13;92.19
65207;SHT31;58477;48.072;11.970;2024-01-15T07:06:07;-2.15;92.92
65207;SHT31;58477;48.072;11.970;2024-01-15T07:08:33;-2.18;93.04
65207;SHT31;58477;48.072;11.970;2024-01-15T07:10:58;-2.13;92.50
65207;SHT31;58477;48.072;11.970;2024-01-15T07:13:24;-2.13;92.82
65207;SHT31;58477;48.072;11.970;2024-01-15T07:15:49;-2.14;92.60
65207;SHT31;58477;48.072;11.970;2024-01-15T07:18:15;-2.15;92.61
65207;SHT31;58477;48.072;11.970;2024-01-15T07:20:41;-2.17;92.98
65207;SHT31;58477;48.072;11.970;2024-01-15T07:23:07;-2.17;92.79
65207;SHT31;58477;48.072;11.970;2024-01-15T07:25:32;-2.17;93.30
65207;SHT31;58477;48.072;11.970;2024-01-15T07:27:58;-2.13;92.85
65207;SHT31;58477;48.072;11.970;2024-01-15T07:30:23;-2.08;92.46
65207;SHT31;58477;48.072;11.970;2024-01-15T07:32:48;-2.13;92.64
65207;SHT31;58477;48.072;11.970;2024-01-15T07:35:14;-2.11;92.55
65207;SHT31;58477;48.072;11.970;2024-01-15T07:37:40;-2.03;92.39
65207;SHT31;58477;48.072;11.970;2024-01-15T07:40:06;-2.07;92.96
65207;SHT31;58477;48.072;11.970;2024-01-15T07:42:36;-2.03;92.73
65207;SHT31;58477;48.072;11.970;2024-01-15T07:45:02;-2.01;92.03
65207;SHT31;58477;48.072;11.970;2024-01-15T07:47:27;-2.07;92.51
65207;SHT31;58477;48.072;11.970;2024-01-15T07:49:53;-2.03;92.42
65207;SHT31;58477;48.072;11.970;2024-01-15T07:52:19;-2.01;92.30
65207;SHT31;58477;48.072;11.970;2024-01-15T07:54:44;-2.00;92.77
65207;SHT31;58477;48.072;11.970;2024-01-15T07:57:10;-1.90;92.74
65207;SHT31;58477;48.072;11.970;2024-01-15T07:59:35;-1.87;92.35
65207;SHT31;58477;48.072;11.970;2024-01-15T08:02:01;-1.86;92.44
65207;SHT31;58477;48.072;11.970;2024-01-15T08:04:26;-1.73;92.24
65207;SHT31;58477;48.072;11.970;2024-01-15T08:06:52;-1.80;92.26
65207;SHT31;58477;48.072;11.970;2024-01-15T08:09:18;-1.76;92.23
65207;SHT31;58477;48.072;11.970;2024-01-15T08:11:43;-1.76;92.42
65207;SHT31;58477;48.072;11.970;2024-01-15T08:14:09;-1.69;92.04
65207;SHT31;58477;48.072;11.970;2024-01-15T08:16:38;-1.69;92.24
65207;SHT31;58477;48.072;11.970;2024-01-15T08:19:04;-1.64;92.19
65207;SHT31;58477;48.072;11.970;2024-01-15T08:21:29;-1.62;91.94
65207;SHT31;58477;48.072;11.970;2024-01-15T08:23:58;-1.60;92.28
65207;SHT31;58477;48.072;11.970;2024-01-15T08:26:24;-1.59;91.99
65207;SHT31;58477;48.072;11.970;2024-01-15T08:28:50;-1.66;92.44
65207;SHT31;58477;48.072;11.970;2024-01-15T08:31:15;-1.59;92.77
65207;SHT31;58477;48.072;11.970;2024-01-15T08:33:41;-1.66;92.88
65207;SHT31;58477;48.072;11.970;2024-01-15T08:36:06;-1.63;92.37
65207;SHT31;58477;48.072;11.970;2024-01-15T08:38:32;-1.60;92.39
65207;SHT31;58477;48.072;11.970;2024-01-15T08:40:57;-1.59;92.43
65207;SHT31;58477;48.072;11.970;2024-01-15T08:43:26;-1.58;92.43
65207;SHT31;58477;48.072;11.970;2024-01-15T08:45:51;-1.50;92.93
65207;SHT31;58477;48.072;11.970;2024-01-15T08:48:16;-1.49;92.10
65207;SHT31;58477;48.072;11.970;2024-01-15T08:50:42;-1.50;92.23
65207;SHT31;58477;48.072;11.970;2024-01-15T08:53:07;-1.48;92.67
65207;SHT31;58477;48.072;11.970;2024-01-15T08:55:33;-1.49;92.27
65207;SHT31;58477;48.072;11.970;2024-01-15T08:57:59;-1.46;92.35
65207;SHT31;58477;48.072;11.970;2024-01-15T09:00:24;-1.50;92.41
65207;SHT31;58477;48.072;11.970;2024-01-15T09:02:50;-1.46;91.80
65207;SHT31;58477;48.072;11.970;2024-01-15T09:05:15;-1.52;92.44
65207;SHT31;58477;48.072;11.970;2024-01-15T09:07:41;-1.45;91.97
65207;SHT31;58477;48.072;11.970;2024-01-15T09:10:06;-1.48;92.22
65207;SHT31;58477;48.072;11.970;2024-01-15T09:12:32;-1.39;91.16
65207;SHT31;58477;48.072;11.970;2024-01-15T09:14:57;-1.45;91.14
65207;SHT31;58477;48.072;11.970;2024-01-15T09:17:23;-1.39;91.23
65207;SHT31;58477;48.072;11.970;2024-01-15T09:19:49;-1.36;91.48
65207;SHT31;58477;48.072;11.970;2024-01-15T09:22:14;-1.32;91.19
65207;SHT31;58477;48.072;11.970;2024-01-15T09:24:46;-1.28;91.56
65207;SHT31;58477;48.072;11.970;2024-01-15T09:27:11;-1.18;91.24
65207;SHT31;58477;48.072;11.970;2024-01-15T09:29:37;-1.13;91.33
65207;SHT31;58477;48.072;11.970;2024-01-15T09:32:05;-1.12;91.22
65207;SHT31;58477;48.072;11.970;2024-01-15T09:34:31;-1.08;91.59
65207;SHT31;58477;48.072;11.970;2024-01-15T09:36:57;-1.04;90.67
65207;SHT31;58477;48.072;11.970;2024-01-15T09:39:22;-0.99;90.75
65207;SHT31;58477;48.072;11.970;2024-01-15T09:41:49;-1.05;90.98
65207;SHT31;58477;48.072;11.970;2024-01-15T09:44:15;-0.99;91.04
65207;SHT31;58477;48.072;11.970;2024-01-15T09:46:41;-0.94;91.09
65207;SHT31;58477;48.072;11.970;2024-01-15T09:49:08;-1.02;91.21
65207;SHT31;58477;48.072;11.970;2024-01-15T09:51:34;-0.94;91.13
65207;SHT31;58477;48.072;11.970;2024-01-15T09:54:00;-0.94;91.16
65207;SHT31;58477;48.072;11.970;2024-01-15T09:56:26;-0.87;90.99
65207;SHT31;58477;48.072;11.970;2024-01-15T09:58:52;-0.75;90.73
65207;SHT31;58477;48.072;11.970;2024-01-15T10:01:20;-0.71;90.71
65207;SHT31;58477;48.072;11.970;2024-01-15T10:03:45;-0.58;90.44
65207;SHT31;58477;48.072;11.970;2024-01-15T10:06:15;-0.67;89.98
65207;SHT31;58477;48.072;11.970;2024-01-15T10:08:43;-0.57;90.51
65207;SHT31;58477;48.072;11.970;2024-01-15T10:11:12;-0.60;90.25
65207;SHT31;58477;48.072;11.970;2024-01-15T10:13:39;-0.33;89.77
65207;SHT31;58477;48.072;11.970;2024-01-15T10:16:04;-0.40;89.44
65207;SHT31;58477;48.072;11.970;2024-01-15T10:18:30;-0.53;88.69
65207;SHT31;58477;48.072;11.970;2024-01-15T10:20:56;-0.38;89.40
65207;SHT31;58477;48.072;11.970;2024-01-15T10:23:23;-0.24;88.86
65207;SHT31;58477;48.072;11.970;2024-01-15T10:25:48;-0.07;89.07
65207;SHT31;58477;48.072;11.970;2024-01-15T10:28:14;-0.27;88.05
65207;SHT31;58477;48.072;11.970;2024-01-15T10:30:39;-0.38;89.01
65207;SHT31;58477;48.072;11.970;2024-01-15T10:33:05;-0.30;89.03
65207;SHT31;58477;48.072;11.970;2024-01-15T10:35:32;-0.37;89.59
65207;SHT31;58477;48.072;11.970;2024-01-15T10:37:59;-0.33;89.17
65207;SHT31;58477;48.072;11.970;2024-01-15T10:40:24;-0.40;89.40
65207;SHT31;58477;48.072;11.970;2024-01-15T10:42:50;-0.31;89.91
65207;SHT31;58477;48.072;11.970;2024-01-15T10:45:16;-0.34;89.41
65207;SHT31;58477;48.072;11.970;2024-01-15T10:47:42;-0.45;89.98
65207;SHT31;58477;48.072;11.970;2024-01-15T10:50:08;-0.37;89.88
65207;SHT31;58477;48.072;11.970;2024-01-15T10:52:36;-0.23;89.93
65207;SHT31;58477;48.072;11.970;2024-01-15T10:55:02;-0.29;89.94
65207;SHT31;58477;48.072;11.970;2024-01-15T10:57:29;-0.26;89.84
65207;SHT31;58477;48.072;11.970;2024-01-15T10:59:54;-0.38;89.92
65207;SHT31;58477;48.072;11.970;2024-01-15T11:02:20;-0.14;90.63
65207;SHT31;58477;48.072;11.970;2024-01-15T11:04:46;-0.26;89.90
65207;SHT31;58477;48.072;11.970;2024-01-15T11:07:13;0.08;89.94
65207;SHT31;58477;48.072;11.970;2024-01-15T11:09:39;-0.06;89.34
65207;SHT31;58477;48.072;11.970;2024-01-15T11:12:11;-0.24;89.66
65207;SHT31;58477;48.072;11.970;2024-01-15T11:14:40;-0.19;89.61
65207;SHT31;58477;48.072;11.970;2024-01-15T11:17:09;-0.13;89.39
65207;SHT31;58477;48.072;11.970;2024-01-15T11:19:36;0.24;89.12
65207;SHT31;58477;48.072;11.970;2024-01-15T11:22:02;0.31;88.13
65207;SHT31;58477;48.072;11.970;2024-01-15T11:27:03;0.29;87.94
65207;SHT31;58477;48.072;11.970;2024-01-15T11:29:34;0.31;88.22
65207;SHT31;58477;48.072;11.970;2024-01-15T11:32:09;0.70;87.13
65207;SHT31;58477;48.072;11.970;2024-01-15T11:34:55;0.88;86.96
65207;SHT31;58477;48.072;11.970;2024-01-15T11:37:26;0.58;86.68
65207;SHT31;58477;48.072;11.970;2024-01-15T11:39:53;0.54;86.79
65207;SHT31;58477;48.072;11.970;2024-01-15T11:42:21;0.65;86.38
65207;SHT31;58477;48.072;11.970;2024-01-15T11:44:46;0.85;86.43
65207;SHT31;58477;48.072;11.970;2024-01-15T11:47:12;0.69;86.43
65207;SHT31;58477;48.072;11.970;2024-01-15T11:50:00;0.58;85.65
65207;SHT31;58477;48.072;11.970;2024-01-15T11:52:32;0.58;86.80
65207;SHT31;58477;48.072;11.970;2024-01-15T11:55:10;0.11;86.97
65207;SHT31;58477;48.072;11.970;2024-01-15T12:00:06;0.10;88.35
65207;SHT31;58477;48.072;11.970;2024-01-15T12:02:44;0.22;88.54
65207;SHT31;58477;48.072;11.970;2024-01-15T12:05:13;0.25;88.33
65207;SHT31;58477;48.072;11.970;2024-01-15T12:07:39;0.18;88.61
65207;SHT31;58477;48.072;11.970;2024-01-15T12:10:18;0.00;88.52
65207;SHT31;58477;48.072;11.970;2024-01-15T12:13:05;0.08;88.89
65207;SHT31;58477;48.072;11.970;2024-01-15T12:15:32;0.05;88.74
65207;SHT31;58477;48.072;11.970;2024-01-15T12:17:59;0.07;88.86
65207;SHT31;58477;48.072;11.970;2024-01-15T12:20:31;0.13;89.21
65207;SHT31;58477;48.072;11.970;2024-01-15T12:22:58;0.10;89.07
65207;SHT31;58477;48.072;11.970;2024-01-15T12:25:24;0.15;89.35
65207;SHT31;58477;48.072;11.970;2024-01-15T12:27:52;0.08;89.09
65207;SHT31;58477;48.072;11.970;2024-01-15T12:30:18;0.19;89.30
65207;SHT31;58477;48.072;11.970;2024-01-15T12:32:44;0.24;89.05
65207;SHT31;58477;48.072;11.970;2024-01-15T12:35:13;0.24;89.20
65207;SHT31;58477;48.072;11.970;2024-01-15T12:37:39;0.24;89.29
65207;SHT31;58477;48.072;11.970;2024-01-15T12:40:06;0.13;89.44
65207;SHT31;58477;48.072;11.970;2024-01-15T12:42:33;0.15;89.79
65207;SHT31;58477;48.072;11.970;2024-01-15T12:44:58;0.10;89.47
65207;SHT31;58477;48.072;11.970;2024-01-15T12:47:24;0.04;89.67
65207;SHT31;58477;48.072;11.970;2024-01-15T12:49:54;-0.03;89.72
65207;SHT31;58477;48.072;11.970;2024-01-15T12:52:20;-0.07;89.84
65207;SHT31;58477;48.072;11.970;2024-01-15T12:54:48;-0.20;89.62
65207;SHT31;58477;48.072;11.970;2024-01-15T12:57:13;-0.33;89.89
65207;SHT31;58477;48.072;11.970;2024-01-15T12:59:39;-0.16;89.82
65207;SHT31;58477;48.072;11.970;2024-01-15T13:02:05;0.04;89.39
65207;SHT31;58477;48.072;11.970;2024-01-15T13:04:30;0.18;89.22
65207;SHT31;58477;48.072;11.970;2024-01-15T13:06:56;0.21;89.07
65207;SHT31;58477;48.072;11.970;2024-01-15T13:09:22;0.40;88.97
65207;SHT31;58477;48.072;11.970;2024-01-15T13:11:47;0.35;88.89
65207;SHT31;58477;48.072;11.970;2024-01-15T13:14:13;0.34;88.78
65207;SHT31;58477;48.072;11.970;2024-01-15T13:16:40;0.22;89.39
65207;SHT31;58477;48.072;11.970;2024-01-15T13:19:09;0.03;90.01
65207;SHT31;58477;48.072;11.970;2024-01-15T13:21:40;-0.07;90.06
65207;SHT31;58477;48.072;11.970;2024-01-15T13:24:05;-0.14;90.77
65207;SHT31;58477;48.072;11.970;2024-01-15T13:26:32;-0.24;91.02
65207;SHT31;58477;48.072;11.970;2024-01-15T13:29:02;-0.14;91.05
65207;SHT31;58477;48.072;11.970;2024-01-15T13:31:29;0.10;90.75
65207;SHT31;58477;48.072;11.970;2024-01-15T13:33:54;0.22;90.67
65207;SHT31;58477;48.072;11.970;2024-01-15T13:36:21;0.24;90.43
65207;SHT31;58477;48.072;11.970;2024-01-15T13:38:49;0.29;90.49
65207;SHT31;58477;48.072;11.970;2024-01-15T13:41:15;0.29;90.48
65207;SHT31;58477;48.072;11.970;2024-01-15T13:43:40;0.32;90.35
65207;SHT31;58477;48.072;11.970;2024-01-15T13:46:06;0.52;90.67
65207;SHT31;58477;48.072;11.970;2024-01-15T13:48:31;0.48;90.16
65207;SHT31;58477;48.072;11.970;2024-01-15T13:50:57;0.41;90.02
65207;SHT31;58477;48.072;11.970;2024-01-15T13:53:23;0.44;90.29
65207;SHT31;58477;48.072;11.970;2024-01-15T13:55:48;0.35;90.25
65207;SHT31;58477;48.072;11.970;2024-01-15T13:58:14;0.28;90.52
65207;SHT31;58477;48.072;11.970;2024-01-15T14:00:39;0.32;90.49
65207;SHT31;58477;48.072;11.970;2024-01-15T14:03:05;0.28;90.49
65207;SHT31;58477;48.072;11.970;2024-01-15T14:05:31;0.24;90.50
65207;SHT31;58477;48.072;11.970;2024-01-15T14:07:56;0.29;90.59
65207;SHT31;58477;48.072;11.970;2024-01-15T14:10:21;0.27;90.11
65207;SHT31;58477;48.072;11.970;2024-01-15T14:12:47;0.18;90.66
65207;SHT31;58477;48.072;11.970;2024-01-15T14:15:12;0.18;91.22
65207;SHT31;58477;48.072;11.970;2024-01-15T14:17:38;0.13;91.10
65207;SHT31;58477;48.072;11.970;2024-01-15T14:20:04;0.05;91.24
65207;SHT31;58477;48.072;11.970;2024-01-15T14:22:30;0.08;90.93
65207;SHT31;58477;48.072;11.970;2024-01-15T14:24:56;0.05;90.91
65207;SHT31;58477;48.072;11.970;2024-01-15T14:27:21;0.04;90.96
65207;SHT31;58477;48.072;11.970;2024-01-15T14:29:47;-0.03;91.12
65207;SHT31;58477;48.072;11.970;2024-01-15T14:32:12;0.04;91.45
65207;SHT31;58477;48.072;11.970;2024-01-15T14:34:37;0.00;91.09
65207;SHT31;58477;48.072;11.970;2024-01-15T14:37:03;-0.03;91.00
65207;SHT31;58477;48.072;11.970;2024-01-15T14:39:28;-0.02;91.19
65207;SHT31;58477;48.072;11.970;2024-01-15T14:41:54;-0.09;90.68
65207;SHT31;58477;48.072;11.970;2024-01-15T14:44:19;-0.02;91.27
65207;SHT31;58477;48.072;11.970;2024-01-15T14:46:44;-0.06;91.04
65207;SHT31;58477;48.072;11.970;2024-01-15T14:49:11;-0.10;91.03
65207;SHT31;58477;48.072;11.970;2024-01-15T14:51:36;-0.11;91.19
65207;SHT31;58477;48.072;11.970;2024-01-15T14:54:02;-0.14;90.99
65207;SHT31;58477;48.072;11.970;2024-01-15T14:56:27;-0.11;91.92
65207;SHT31;58477;48.072;11.970;2024-01-15T14:58:54;-0.10;91.89
65207;SHT31;58477;48.072;11.970;2024-01-15T15:01:19;-0.19;91.56
65207;SHT31;58477;48.072;11.970;2024-01-15T15:03:45;-0.19;92.10
65207;SHT31;58477;48.072;11.970;2024-01-15T15:06:10;-0.21;92.25
65207;SHT31;58477;48.072;11.970;2024-01-15T15:08:36;-0.21;92.14
65207;SHT31;58477;48.072;11.970;2024-01-15T15:11:04;-0.26;91.25
65207;SHT31;58477;48.072;11.970;2024-01-15T15:13:29;-0.27;91.26
65207;SHT31;58477;48.072;11.970;2024-01-15T15:15:55;-0.20;91.18